createdAt,value
2023-04-10T00:00:53.000Z,60.2
2023-04-10T00:03:38.000Z,58.2
2023-04-10T00:04:56.000Z,67.6
2023-04-10T00:09:07.000Z,65.4
2023-04-10T00:11:52.000Z,61.8
2023-04-10T00:14:37.000Z,63
2023-04-10T00:17:21.000Z,55.7
2023-04-10T00:20:06.000Z,42.4
2023-04-10T00:22:50.000Z,49.5
2023-04-10T00:25:35.000Z,44.7
2023-04-10T00:28:20.000Z,43.5
2023-04-10T00:31:04.000Z,50.1
2023-04-10T00:32:22.000Z,56.5
2023-04-10T00:33:49.000Z,69.8
2023-04-10T00:36:34.000Z,68.7
2023-04-10T00:39:18.000Z,64.3
2023-04-10T00:42:03.000Z,72.2
2023-04-10T00:44:48.000Z,70.6
2023-04-10T00:47:32.000Z,69
2023-04-10T00:50:17.000Z,70.6
2023-04-10T00:53:01.000Z,51.3
2023-04-10T00:58:31.000Z,48.8
2023-04-10T00:59:49.000Z,51.4
2023-04-10T01:01:15.000Z,52
2023-04-10T01:04:00.000Z,51.6
2023-04-10T01:06:45.000Z,52.2
2023-04-10T01:09:29.000Z,59.6
2023-04-10T01:12:14.000Z,65
2023-04-10T01:14:59.000Z,60.4
2023-04-10T01:17:43.000Z,54
2023-04-10T01:20:28.000Z,61.6
2023-04-10T01:23:13.000Z,64.4
2023-04-10T01:25:57.000Z,56.6
2023-04-10T01:27:15.000Z,63.1
2023-04-10T01:28:42.000Z,43.5
2023-04-10T01:31:26.000Z,51.1
2023-04-10T01:34:11.000Z,48.5
2023-04-10T01:36:56.000Z,47
2023-04-10T01:39:40.000Z,47.3
2023-04-10T01:42:25.000Z,51.1
2023-04-10T01:45:10.000Z,60
2023-04-10T01:47:54.000Z,55.7
2023-04-10T01:50:39.000Z,66.6
2023-04-10T01:53:24.000Z,68.9
2023-04-10T01:54:42.000Z,65.2
2023-04-10T01:56:08.000Z,72.3
2023-04-10T01:58:53.000Z,71.8
2023-04-10T02:01:38.000Z,62.5
2023-04-10T02:04:22.000Z,68.1
2023-04-10T02:07:07.000Z,73.8
2023-04-10T02:09:51.000Z,84.6
2023-04-10T02:12:36.000Z,54.8
2023-04-10T02:15:21.000Z,52.4
2023-04-10T02:18:22.000Z,53.1
2023-04-10T02:21:06.000Z,58.3
2023-04-10T02:22:24.000Z,50.6
2023-04-10T02:23:51.000Z,82.8
2023-04-10T02:26:36.000Z,97.9
2023-04-10T02:29:20.000Z,150
2023-04-10T02:32:05.000Z,71
2023-04-10T02:34:50.000Z,84.4
2023-04-10T02:37:34.000Z,78.3
2023-04-10T02:40:19.000Z,74.3
2023-04-10T02:43:04.000Z,72.5
2023-04-10T02:45:48.000Z,70.9
2023-04-10T02:48:33.000Z,62.5
2023-04-10T02:49:51.000Z,57.8
2023-04-10T02:51:17.000Z,60.7
2023-04-10T02:54:02.000Z,53.7
2023-04-10T02:56:47.000Z,51.3
2023-04-10T02:59:31.000Z,62.4
2023-04-10T03:02:16.000Z,62.9
2023-04-10T03:05:01.000Z,64.1
2023-04-10T03:07:45.000Z,72.5
2023-04-10T03:10:30.000Z,78.1
2023-04-10T03:13:15.000Z,69.2
2023-04-10T03:15:59.000Z,60.5
2023-04-10T03:17:17.000Z,66.3
2023-04-10T03:18:44.000Z,61.4
2023-04-10T03:21:29.000Z,62.7
2023-04-10T03:24:13.000Z,59.6
2023-04-10T03:26:58.000Z,66.8
2023-04-10T03:29:42.000Z,61.2
2023-04-10T03:32:27.000Z,66.7
2023-04-10T03:37:56.000Z,68.3
2023-04-10T03:40:41.000Z,66.9
2023-04-10T03:43:26.000Z,64.8
2023-04-10T03:44:43.000Z,69.8
2023-04-10T03:46:10.000Z,61.3
2023-04-10T03:48:55.000Z,66.6
2023-04-10T03:51:40.000Z,71.1
2023-04-10T03:54:24.000Z,58.1
2023-04-10T03:57:09.000Z,65.5
2023-04-10T03:59:53.000Z,51.2
2023-04-10T04:02:38.000Z,66.4
2023-04-10T04:05:23.000Z,64.4
2023-04-10T04:08:07.000Z,63.3
2023-04-10T04:10:52.000Z,57.2
2023-04-10T04:12:10.000Z,53.3
2023-04-10T04:13:37.000Z,56.5
2023-04-10T04:16:21.000Z,58.5
2023-04-10T04:19:06.000Z,62.6
2023-04-10T04:21:51.000Z,62.8
2023-04-10T04:24:35.000Z,60
2023-04-10T04:27:20.000Z,68.3
2023-04-10T04:30:05.000Z,68.2
2023-04-10T04:32:49.000Z,60.6
2023-04-10T04:35:34.000Z,54.6
2023-04-10T04:38:18.000Z,50.4
2023-04-10T04:39:36.000Z,56
2023-04-10T04:41:03.000Z,60.7
2023-04-10T04:43:48.000Z,57.6
2023-04-10T04:46:32.000Z,57.2
2023-04-10T04:49:17.000Z,51.6
2023-04-10T04:52:02.000Z,52.7
2023-04-10T04:54:46.000Z,50.8
2023-04-10T04:57:31.000Z,55.6
2023-04-10T05:00:16.000Z,49.8
2023-04-10T05:03:00.000Z,46.9
2023-04-10T05:05:45.000Z,45.3
2023-04-10T05:07:03.000Z,43.8
2023-04-10T05:08:30.000Z,44.8
2023-04-10T05:11:14.000Z,44.5
2023-04-10T05:13:59.000Z,42.6
2023-04-10T05:16:43.000Z,41.7
2023-04-10T05:19:28.000Z,39.3
2023-04-10T05:22:13.000Z,37.7
2023-04-10T05:24:57.000Z,40.3
2023-04-10T05:27:42.000Z,38.9
2023-04-10T05:30:27.000Z,38.1
2023-04-10T05:33:11.000Z,36
2023-04-10T05:34:29.000Z,37.3
2023-04-10T05:35:56.000Z,34.6
2023-04-10T05:38:41.077Z,37.7
2023-04-10T05:41:25.000Z,37.8
2023-04-10T05:46:55.000Z,34.5
2023-04-10T05:49:39.000Z,34.6
2023-04-10T05:52:24.000Z,31.9
2023-04-10T05:55:08.000Z,33.1
2023-04-10T05:57:53.000Z,33.3
2023-04-10T06:00:38.000Z,32.8
2023-04-10T06:01:56.000Z,30.5
2023-04-10T06:03:22.000Z,27.9
2023-04-10T06:06:07.000Z,26.8
2023-04-10T06:08:52.000Z,27.3
2023-04-10T06:11:36.000Z,28.8
2023-04-10T06:14:21.000Z,27.7
2023-04-10T06:17:06.000Z,30.1
2023-04-10T06:19:50.000Z,31.2
2023-04-10T06:22:35.000Z,35.7
2023-04-10T06:25:19.000Z,34.7
2023-04-10T06:28:04.000Z,39
2023-04-10T06:29:22.000Z,35.1
2023-04-10T06:30:49.000Z,28.9
2023-04-10T06:33:33.000Z,29.2
2023-04-10T06:36:18.000Z,26.8
2023-04-10T06:39:03.000Z,23.7
2023-04-10T06:41:47.000Z,23.8
2023-04-10T06:44:32.000Z,21.6
2023-04-10T06:47:17.000Z,18.5
2023-04-10T06:50:01.000Z,17.8
2023-04-10T06:52:46.000Z,17.2
2023-04-10T06:55:31.000Z,18.2
2023-04-10T06:56:48.000Z,16.4
2023-04-10T06:58:15.000Z,18.8
2023-04-10T07:01:00.000Z,15.9
2023-04-10T07:03:44.000Z,16.7
2023-04-10T07:06:29.000Z,15.5
2023-04-10T07:11:58.000Z,16.3
2023-04-10T07:14:43.000Z,14.5
2023-04-10T07:17:28.000Z,15.1
2023-04-10T07:20:12.000Z,12.5
2023-04-10T07:22:57.000Z,12.3
2023-04-10T07:24:15.000Z,11.4
2023-04-10T07:25:42.000Z,14
2023-04-10T07:28:26.000Z,13.1
2023-04-10T07:31:11.000Z,12.4
2023-04-10T07:33:55.000Z,12.9
2023-04-10T07:36:40.000Z,13.2
2023-04-10T07:39:25.000Z,13.6
2023-04-10T07:42:09.000Z,12.6
2023-04-10T07:44:54.000Z,10.7
2023-04-10T07:47:39.000Z,11.3
2023-04-10T07:50:23.000Z,11.2
2023-04-10T07:51:41.000Z,10.9
2023-04-10T07:53:08.000Z,11
2023-04-10T07:55:53.000Z,10.1
2023-04-10T07:58:37.000Z,9
2023-04-10T08:01:22.000Z,10.2
2023-04-10T08:04:07.000Z,9.8
2023-04-10T08:06:51.000Z,9.2
2023-04-10T08:09:36.000Z,9.6
2023-04-10T08:17:50.000Z,8.8
2023-04-10T08:19:08.000Z,7.9
2023-04-10T08:20:34.000Z,8.5
2023-04-10T08:23:19.000Z,8.5
2023-04-10T08:26:04.000Z,13.3
2023-04-10T08:28:48.000Z,10.7
2023-04-10T08:31:33.000Z,8
2023-04-10T08:34:18.000Z,9.6
2023-04-10T08:37:02.000Z,9.5
2023-04-10T08:39:47.000Z,8.8
2023-04-10T08:42:31.000Z,8.5
2023-04-10T08:45:16.000Z,9.2
2023-04-10T08:46:34.000Z,8.8
2023-04-10T08:48:01.000Z,10
2023-04-10T08:50:45.000Z,9.7
2023-04-10T08:53:30.000Z,9.4
2023-04-10T08:56:15.000Z,8.5
2023-04-10T08:58:59.000Z,9.6
2023-04-10T09:01:44.000Z,9.9
2023-04-10T09:04:29.000Z,10.5
2023-04-10T09:07:13.000Z,10.4
2023-04-10T09:09:58.000Z,9.2
2023-04-10T09:12:43.000Z,9.7
2023-04-10T09:14:01.000Z,9.2
2023-04-10T09:15:27.000Z,9.9
2023-04-10T09:18:12.000Z,9.6
2023-04-10T09:23:41.000Z,10.3
2023-04-10T09:26:26.000Z,11.1
2023-04-10T09:29:10.000Z,8.9
2023-04-10T09:31:55.000Z,10.3
2023-04-10T09:34:40.000Z,9.8
2023-04-10T09:40:09.000Z,7.9
2023-04-10T09:41:27.000Z,7.3
2023-04-10T09:42:54.000Z,7.8
2023-04-10T09:45:38.000Z,8.4
2023-04-10T09:48:23.000Z,10
2023-04-10T09:51:08.000Z,7.6
2023-04-10T09:53:52.000Z,7.3
2023-04-10T09:56:37.000Z,7.8
2023-04-10T09:59:21.000Z,6.3
2023-04-10T10:02:06.000Z,6.7
2023-04-10T10:04:51.000Z,6.2
2023-04-10T10:07:35.000Z,6.9
2023-04-10T10:08:53.000Z,6
2023-04-10T10:10:20.000Z,6.3
2023-04-10T10:15:49.000Z,5.6
2023-04-10T10:18:34.000Z,4.8
2023-04-10T10:21:19.000Z,5.4
2023-04-10T10:24:03.000Z,6.1
2023-04-10T10:26:48.000Z,4.3
2023-04-10T10:29:32.000Z,4.4
2023-04-10T10:32:17.000Z,4.2
2023-04-10T10:35:02.000Z,4.3
2023-04-10T10:36:20.000Z,4
2023-04-10T10:37:46.000Z,5.6
2023-04-10T10:40:31.000Z,3.7
2023-04-10T10:43:16.000Z,3.6
2023-04-10T10:46:00.000Z,3.7
2023-04-10T10:48:45.000Z,4.7
2023-04-10T10:51:30.000Z,4.8
2023-04-10T10:54:14.000Z,4.5
2023-04-10T10:56:59.000Z,4.9
2023-04-10T11:02:28.000Z,4
2023-04-10T11:03:46.000Z,7
2023-04-10T11:05:13.000Z,3.9
2023-04-10T11:07:57.000Z,4
2023-04-10T11:10:42.000Z,3.6
2023-04-10T11:13:27.000Z,4.3
2023-04-10T11:16:28.000Z,3.7
2023-04-10T11:19:12.000Z,3.9
2023-04-10T11:21:57.000Z,4
2023-04-10T11:24:42.000Z,3.5
2023-04-10T11:27:26.000Z,3.2
2023-04-10T11:30:11.000Z,4
2023-04-10T11:31:29.000Z,4.3
2023-04-10T11:32:56.000Z,3.8
2023-04-10T11:35:40.000Z,5.2
2023-04-10T11:38:25.000Z,3.6
2023-04-10T11:41:10.000Z,4.7
2023-04-10T11:43:54.000Z,4.5
2023-04-10T11:46:39.000Z,4.2
2023-04-10T11:49:23.000Z,6.7
2023-04-10T11:52:08.000Z,3.3
2023-04-10T11:54:53.000Z,3.2
2023-04-10T11:57:37.000Z,3.2
2023-04-10T11:58:55.000Z,3.3
2023-04-10T12:00:22.000Z,4.9
2023-04-10T12:03:07.000Z,5.5
2023-04-10T12:05:51.000Z,3.2
2023-04-10T12:08:36.000Z,4.3
2023-04-10T12:11:21.000Z,3.7
2023-04-10T12:14:05.000Z,3.9
2023-04-10T12:16:50.000Z,3.4
2023-04-10T12:22:19.000Z,3
2023-04-10T12:25:04.000Z,3
2023-04-10T12:26:21.000Z,3.1
2023-04-10T12:27:48.000Z,3.5
2023-04-10T12:30:33.000Z,3.6
2023-04-10T12:33:18.000Z,3.2
2023-04-10T12:36:02.000Z,4.1
2023-04-10T12:38:47.000Z,2.7
2023-04-10T12:41:32.000Z,5.1
2023-04-10T12:44:16.000Z,2.8
2023-04-10T12:47:01.000Z,3
2023-04-10T12:49:46.000Z,3.1
2023-04-10T12:52:30.000Z,3.6
2023-04-10T12:53:48.000Z,2.3
2023-04-10T12:55:15.000Z,4.3
2023-04-10T12:57:59.000Z,4
2023-04-10T13:00:44.000Z,4.5
2023-04-10T13:03:29.000Z,3.2
2023-04-10T13:06:13.000Z,2.2
2023-04-10T13:08:58.000Z,2.5
2023-04-10T13:11:43.000Z,2.5
2023-04-10T13:14:27.000Z,3.6
2023-04-10T13:17:12.000Z,2.8
2023-04-10T13:19:57.000Z,2.7
2023-04-10T13:21:14.000Z,2.7
2023-04-10T13:22:41.000Z,3.8
2023-04-10T13:25:26.000Z,2.8
2023-04-10T13:30:55.000Z,3.4
2023-04-10T13:33:40.000Z,3.4
2023-04-10T13:36:24.000Z,3.4
2023-04-10T13:39:09.000Z,3.8
2023-04-10T13:41:54.000Z,2.7
2023-04-10T13:44:38.000Z,2.4
2023-04-10T13:47:23.000Z,2.3
2023-04-10T13:48:41.000Z,2.5
2023-04-10T13:50:08.000Z,2.9
2023-04-10T13:52:52.000Z,2
2023-04-10T13:58:22.000Z,3.6
2023-04-10T14:01:06.000Z,1.7
2023-04-10T14:03:51.000Z,1.5
2023-04-10T14:06:35.000Z,1.7
2023-04-10T14:09:20.000Z,2.1
2023-04-10T14:12:05.000Z,2.4
2023-04-10T14:14:49.000Z,1.7
2023-04-10T14:16:07.000Z,1.8
2023-04-10T14:17:34.000Z,2.3
2023-04-10T14:20:19.000Z,1.8
2023-04-10T14:23:03.000Z,1.6
2023-04-10T14:25:48.000Z,2.1
2023-04-10T14:28:33.000Z,2.3
2023-04-10T14:31:17.000Z,2.5
2023-04-10T14:34:02.000Z,1.6
2023-04-10T14:36:47.000Z,1.7
2023-04-10T14:39:31.000Z,2
2023-04-10T14:42:16.000Z,1.6
2023-04-10T14:43:34.000Z,2
2023-04-10T14:45:00.000Z,2.1
2023-04-10T14:47:45.000Z,2.3
2023-04-10T14:50:30.000Z,1.9
2023-04-10T14:58:44.000Z,2.6
2023-04-10T15:01:28.000Z,1.5
2023-04-10T15:04:13.000Z,1.9
2023-04-10T15:06:58.000Z,1.5
2023-04-10T15:09:42.000Z,1.9
2023-04-10T15:11:00.000Z,1.8
2023-04-10T15:12:27.000Z,1.7
2023-04-10T15:15:11.000Z,1.7
2023-04-10T15:17:56.000Z,1.8
2023-04-10T15:20:41.000Z,3.4
2023-04-10T15:23:25.000Z,1.7
2023-04-10T15:26:10.000Z,1.8
2023-04-10T15:28:55.000Z,2.3
2023-04-10T15:31:39.000Z,2.8
2023-04-10T15:34:24.000Z,2.1
2023-04-10T15:37:09.000Z,1.8
2023-04-10T15:38:26.000Z,2.3
2023-04-10T15:42:38.000Z,2.3
2023-04-10T15:45:23.000Z,1.8
2023-04-10T15:48:24.000Z,2.9
2023-04-10T15:51:08.000Z,2.5
2023-04-10T15:53:53.000Z,3.6
2023-04-10T15:56:37.000Z,2.2
2023-04-10T15:59:22.000Z,3.2
2023-04-10T16:02:07.000Z,2.3
2023-04-10T16:04:51.000Z,2.6
2023-04-10T16:06:09.000Z,2.4
2023-04-10T16:07:36.000Z,2.5
2023-04-10T16:10:21.000Z,3.2
2023-04-10T16:13:05.000Z,2.6
2023-04-10T16:15:50.000Z,2.7
2023-04-10T16:18:35.000Z,3
2023-04-10T16:21:19.000Z,2.7
2023-04-10T16:24:04.000Z,2.6
2023-04-10T16:26:49.000Z,2.9
2023-04-10T16:29:33.000Z,2.9
2023-04-10T16:32:18.000Z,2.5
2023-04-10T16:33:36.000Z,3.9
2023-04-10T16:35:03.000Z,3
2023-04-10T16:40:48.000Z,4.4
2023-04-10T16:43:33.000Z,2.8
2023-04-10T16:46:17.000Z,3.2
2023-04-10T16:49:02.000Z,3.6
2023-04-10T16:51:47.000Z,3.6
2023-04-10T16:54:31.000Z,2.7
2023-04-10T17:00:01.000Z,2.7
2023-04-10T17:01:18.000Z,3.1
2023-04-10T17:02:45.000Z,3.5
2023-04-10T17:05:30.000Z,4.1
2023-04-10T17:08:15.000Z,3
2023-04-10T17:10:59.000Z,3.2
2023-04-10T17:13:44.000Z,3.6
2023-04-10T17:16:28.000Z,4.5
2023-04-10T17:19:13.000Z,4
2023-04-10T17:21:58.000Z,4.6
2023-04-10T17:24:42.000Z,5
2023-04-10T17:27:27.000Z,3.8
2023-04-10T17:28:45.000Z,4.1
2023-04-10T17:30:12.000Z,3.3
2023-04-10T17:32:56.000Z,2.5
2023-04-10T17:35:41.000Z,3.3
2023-04-10T17:38:26.000Z,3.4
2023-04-10T17:41:10.000Z,3.3
2023-04-10T17:46:39.000Z,2.8
2023-04-10T17:49:24.000Z,3.2
2023-04-10T17:52:09.000Z,4.6
2023-04-10T17:54:53.000Z,3.2
2023-04-10T17:56:11.000Z,3
2023-04-10T17:57:38.000Z,2.9
2023-04-10T18:03:07.000Z,3.6
2023-04-10T18:05:52.000Z,3.2
2023-04-10T18:08:37.000Z,3.9
2023-04-10T18:11:21.000Z,2.9
2023-04-10T18:14:06.000Z,3.4
2023-04-10T18:16:51.000Z,3
2023-04-10T18:19:35.000Z,4.6
2023-04-10T18:22:20.000Z,8.1
2023-04-10T18:23:38.000Z,6.8
2023-04-10T18:25:04.000Z,5.8
2023-04-10T18:27:49.000Z,6.2
2023-04-10T18:30:34.000Z,7.8
2023-04-10T18:33:18.000Z,56.2
2023-04-10T18:36:03.000Z,7.5
2023-04-10T18:38:48.000Z,8.2
2023-04-10T18:44:17.000Z,6.1
2023-04-10T18:47:02.000Z,7.7
2023-04-10T18:49:46.000Z,7.6
2023-04-10T18:51:04.000Z,6.8
2023-04-10T18:52:31.000Z,8.2
2023-04-10T18:58:00.000Z,9.3
2023-04-10T19:00:45.000Z,6.9
2023-04-10T19:03:29.000Z,8.4
2023-04-10T19:06:14.000Z,8.3
2023-04-10T19:11:43.000Z,10.2
2023-04-10T19:14:28.000Z,13.7
2023-04-10T19:17:13.000Z,11.4
2023-04-10T19:18:30.000Z,11.2
2023-04-10T19:19:57.000Z,12.7
2023-04-10T19:22:42.000Z,12.8
2023-04-10T19:25:27.000Z,14.3
2023-04-10T19:28:11.000Z,14.3
2023-04-10T19:30:56.000Z,13.2
2023-04-10T19:33:40.000Z,16.9
2023-04-10T19:36:25.000Z,14.6
2023-04-10T19:41:54.000Z,14.2
2023-04-10T19:44:39.000Z,10.1
2023-04-10T19:45:57.000Z,10
2023-04-10T19:47:24.000Z,15.5
2023-04-10T19:50:08.000Z,14.7
2023-04-10T19:52:53.000Z,17.2
2023-04-10T19:55:38.000Z,17.4
2023-04-10T19:58:22.000Z,14.8
2023-04-10T20:03:35.000Z,17.5
2023-04-10T20:06:20.000Z,14.6
2023-04-10T20:09:04.000Z,16
2023-04-10T20:11:49.000Z,16.9
2023-04-10T20:13:23.000Z,15.3
2023-04-10T20:14:41.000Z,25.2
2023-04-10T20:17:26.000Z,22.4
2023-04-10T20:20:10.000Z,23.9
2023-04-10T20:22:55.000Z,28.4
2023-04-10T20:25:56.000Z,24.7
2023-04-10T20:28:41.000Z,29.6
2023-04-10T20:31:25.000Z,33.7
2023-04-10T20:34:10.000Z,33.7
2023-04-10T20:36:54.000Z,33
2023-04-10T20:39:39.000Z,37.7
2023-04-10T20:40:57.000Z,29.6
2023-04-10T20:45:08.000Z,42.2
2023-04-10T20:47:53.000Z,43
2023-04-10T20:50:38.000Z,43.7
2023-04-10T20:53:22.000Z,45.3
2023-04-10T20:56:07.000Z,45.2
2023-04-10T20:58:52.000Z,36.6
2023-04-10T21:01:36.000Z,43
2023-04-10T21:04:21.000Z,45.6
2023-04-10T21:07:06.000Z,47.9
2023-04-10T21:08:23.000Z,44.6
2023-04-10T21:09:50.000Z,37.5
2023-04-10T21:12:35.000Z,35.6
2023-04-10T21:15:19.000Z,40.5
2023-04-10T21:18:04.000Z,40.4
2023-04-10T21:20:49.000Z,43.4
2023-04-10T21:23:33.000Z,47.2
2023-04-10T21:26:18.000Z,39.5
2023-04-10T21:29:03.000Z,39.5
2023-04-10T21:31:47.000Z,40.1
2023-04-10T21:34:32.000Z,36.2
2023-04-10T21:35:50.000Z,30.2
2023-04-10T21:37:17.000Z,21.9
2023-04-10T21:40:01.000Z,19.7
2023-04-10T21:42:46.000Z,27.4
2023-04-10T21:45:31.000Z,22.7
2023-04-10T21:48:15.000Z,21.5
2023-04-10T21:51:00.000Z,17.1
2023-04-10T21:53:44.000Z,20.4
2023-04-10T21:59:14.000Z,21.8
2023-04-10T22:01:58.000Z,22.7
2023-04-10T22:03:16.000Z,22.9
2023-04-10T22:04:43.000Z,21.7
2023-04-10T22:07:28.000Z,21.7
2023-04-10T22:10:12.000Z,20.9
2023-04-10T22:12:57.000Z,15.4
2023-04-10T22:15:42.000Z,14.7
2023-04-10T22:18:26.000Z,17.8
2023-04-10T22:21:11.000Z,14.9
2023-04-10T22:26:40.000Z,13.5
2023-04-10T22:29:25.000Z,10.9
2023-04-10T22:30:43.000Z,11.8
2023-04-10T22:32:09.000Z,10.3
2023-04-10T22:34:54.000Z,10.8
2023-04-10T22:37:39.000Z,11.1
2023-04-10T22:40:23.000Z,8
2023-04-10T22:43:08.000Z,9.9
2023-04-10T22:45:53.000Z,8
2023-04-10T22:48:37.000Z,7.6
2023-04-10T22:51:22.000Z,8.9
2023-04-10T22:54:07.000Z,5.9
2023-04-10T22:56:51.000Z,8.4
2023-04-10T22:58:09.000Z,7.9
2023-04-10T22:59:36.000Z,7.4
2023-04-10T23:02:20.000Z,7.8
2023-04-10T23:05:05.000Z,9.1
2023-04-10T23:10:34.000Z,9.2
2023-04-10T23:13:19.000Z,11.1
2023-04-10T23:16:04.000Z,11.1
2023-04-10T23:18:48.000Z,10.4
2023-04-10T23:21:33.000Z,8.9
2023-04-10T23:24:18.000Z,8.1
2023-04-10T23:25:35.000Z,10.4
2023-04-10T23:27:02.000Z,7.5
2023-04-10T23:29:47.000Z,8
2023-04-10T23:32:31.000Z,7.1
2023-04-10T23:35:16.000Z,9.7
2023-04-10T23:38:01.000Z,8.4
2023-04-10T23:40:45.000Z,7.2
2023-04-10T23:43:30.000Z,7
2023-04-10T23:46:15.000Z,6.5
2023-04-10T23:51:44.000Z,7.7
2023-04-10T23:53:02.000Z,4.9
2023-04-10T23:54:29.000Z,6.1
2023-04-10T23:57:13.000Z,5.3
2023-04-10T23:59:58.000Z,4.2
